Taylor, Mississippi
Current Conditions -  °F | °C
As of 10:15 AM on Thursday 30 Oct 2014 (Local Time) from KUOX Reporting Station
Clear Clear  
Wind Chill: 57°   Ceiling: Unl
Heat Index: 57°   Visibility: 10mi
Dew Point: 45°   Wind: 0mph
Humidity: 63%   Direction: NA
Pressure: 30.18"   Gusts: NA
Location:  34.27°N, 89.59°W
Report Text: KUOX 301515Z AUTO 00000KT 10SM CLR 14/07 A3018 RMK AO2 PWINO PNO
Loading
Personal Weather Stations






























Interactive Weather Map
Tropical Storm Tracking
New forecast layout! Learn more

10-Day Weather Forecast

Advertisements
Track Severe Weather on mobile